sensor_id;sensor_type;location;lat;lon;timestamp;temperature;humidity
24146;DHT22;12308;50.948;4.706;2023-07-20T00:01:47;17.80;99.90
24146;DHT22;12308;50.948;4.706;2023-07-20T00:04:13;17.80;99.90
24146;DHT22;12308;50.948;4.706;2023-07-20T00:06:40;17.80;99.90
24146;DHT22;12308;50.948;4.706;2023-07-20T00:09:06;17.90;99.90
24146;DHT22;12308;50.948;4.706;2023-07-20T00:11:36;17.90;99.90
24146;DHT22;12308;50.948;4.706;2023-07-20T00:14:02;17.90;99.90
24146;DHT22;12308;50.948;4.706;2023-07-20T00:16:27;18.00;99.90
24146;DHT22;12308;50.948;4.706;2023-07-20T00:18:53;18.00;99.90
24146;DHT22;12308;50.948;4.706;2023-07-20T00:21:19;18.00;99.90
24146;DHT22;12308;50.948;4.706;2023-07-20T00:23:45;18.10;99.90
24146;DHT22;12308;50.948;4.706;2023-07-20T00:26:11;18.10;99.90
24146;DHT22;12308;50.948;4.706;2023-07-20T00:28:36;18.20;99.90
24146;DHT22;12308;50.948;4.706;2023-07-20T00:31:02;18.30;99.90
24146;DHT22;12308;50.948;4.706;2023-07-20T00:33:28;18.30;99.90
24146;DHT22;12308;50.948;4.706;2023-07-20T00:35:54;18.30;99.90
24146;DHT22;12308;50.948;4.706;2023-07-20T00:38:19;18.30;99.90
24146;DHT22;12308;50.948;4.706;2023-07-20T00:40:46;18.20;99.90
24146;DHT22;12308;50.948;4.706;2023-07-20T00:43:11;18.20;99.90
24146;DHT22;12308;50.948;4.706;2023-07-20T00:45:38;18.30;99.90
24146;DHT22;12308;50.948;4.706;2023-07-20T00:48:04;18.30;99.90
24146;DHT22;12308;50.948;4.706;2023-07-20T00:50:31;18.40;99.90
24146;DHT22;12308;50.948;4.706;2023-07-20T00:52:57;18.40;99.90
24146;DHT22;12308;50.948;4.706;2023-07-20T00:55:24;18.40;99.90
24146;DHT22;12308;50.948;4.706;2023-07-20T00:57:51;18.40;99.90
24146;DHT22;12308;50.948;4.706;2023-07-20T01:00:17;18.40;99.90
24146;DHT22;12308;50.948;4.706;2023-07-20T01:02:43;18.50;99.90
24146;DHT22;12308;50.948;4.706;2023-07-20T01:05:09;18.50;99.90
24146;DHT22;12308;50.948;4.706;2023-07-20T01:07:38;18.70;99.90
24146;DHT22;12308;50.948;4.706;2023-07-20T01:10:29;18.60;99.90
24146;DHT22;12308;50.948;4.706;2023-07-20T01:12:57;18.60;99.90
24146;DHT22;12308;50.948;4.706;2023-07-20T01:15:24;18.50;99.90
24146;DHT22;12308;50.948;4.706;2023-07-20T01:17:50;18.40;99.90
24146;DHT22;12308;50.948;4.706;2023-07-20T01:20:18;18.40;99.90
24146;DHT22;12308;50.948;4.706;2023-07-20T01:23:23;18.30;99.90
24146;DHT22;12308;50.948;4.706;2023-07-20T01:26:04;18.10;99.90
24146;DHT22;12308;50.948;4.706;2023-07-20T01:29:07;18.00;99.90
24146;DHT22;12308;50.948;4.706;2023-07-20T01:31:38;17.80;99.90
24146;DHT22;12308;50.948;4.706;2023-07-20T01:34:05;17.90;99.90
24146;DHT22;12308;50.948;4.706;2023-07-20T01:36:36;17.90;99.90
24146;DHT22;12308;50.948;4.706;2023-07-20T01:39:03;17.80;99.90
24146;DHT22;12308;50.948;4.706;2023-07-20T01:41:30;17.80;99.90
24146;DHT22;12308;50.948;4.706;2023-07-20T01:43:59;17.80;99.90
24146;DHT22;12308;50.948;4.706;2023-07-20T01:46:25;17.80;99.90
24146;DHT22;12308;50.948;4.706;2023-07-20T01:48:50;17.90;99.90
24146;DHT22;12308;50.948;4.706;2023-07-20T01:51:16;17.80;99.90
24146;DHT22;12308;50.948;4.706;2023-07-20T01:53:43;17.70;99.90
24146;DHT22;12308;50.948;4.706;2023-07-20T01:56:09;17.60;99.90
24146;DHT22;12308;50.948;4.706;2023-07-20T01:58:35;17.60;99.90
24146;DHT22;12308;50.948;4.706;2023-07-20T02:01:01;17.60;99.90
24146;DHT22;12308;50.948;4.706;2023-07-20T02:03:27;17.70;99.90
24146;DHT22;12308;50.948;4.706;2023-07-20T02:05:53;17.70;99.90
24146;DHT22;12308;50.948;4.706;2023-07-20T02:08:18;17.60;99.90
24146;DHT22;12308;50.948;4.706;2023-07-20T02:10:48;17.40;99.90
24146;DHT22;12308;50.948;4.706;2023-07-20T02:13:14;17.40;99.90
24146;DHT22;12308;50.948;4.706;2023-07-20T02:15:41;17.40;99.90
24146;DHT22;12308;50.948;4.706;2023-07-20T02:18:08;17.30;99.90
24146;DHT22;12308;50.948;4.706;2023-07-20T02:20:34;17.20;99.90
24146;DHT22;12308;50.948;4.706;2023-07-20T02:23:00;17.20;99.90
24146;DHT22;12308;50.948;4.706;2023-07-20T02:25:26;17.20;99.90
24146;DHT22;12308;50.948;4.706;2023-07-20T02:27:52;17.20;99.90
24146;DHT22;12308;50.948;4.706;2023-07-20T02:30:18;17.20;99.90
24146;DHT22;12308;50.948;4.706;2023-07-20T02:32:43;17.10;99.90
24146;DHT22;12308;50.948;4.706;2023-07-20T02:35:15;17.10;99.90
24146;DHT22;12308;50.948;4.706;2023-07-20T02:37:41;17.00;99.90
24146;DHT22;12308;50.948;4.706;2023-07-20T02:40:07;17.00;99.90
24146;DHT22;12308;50.948;4.706;2023-07-20T02:42:33;17.00;99.90
24146;DHT22;12308;50.948;4.706;2023-07-20T02:44:58;17.00;99.90
24146;DHT22;12308;50.948;4.706;2023-07-20T02:47:24;17.00;99.90
24146;DHT22;12308;50.948;4.706;2023-07-20T02:49:50;16.90;99.90
24146;DHT22;12308;50.948;4.706;2023-07-20T02:52:15;16.90;99.90
24146;DHT22;12308;50.948;4.706;2023-07-20T02:54:41;16.90;99.90
24146;DHT22;12308;50.948;4.706;2023-07-20T02:57:07;16.90;99.90
24146;DHT22;12308;50.948;4.706;2023-07-20T02:59:32;16.80;99.90
24146;DHT22;12308;50.948;4.706;2023-07-20T03:01:58;16.80;99.90
24146;DHT22;12308;50.948;4.706;2023-07-20T03:04:27;16.80;99.90
24146;DHT22;12308;50.948;4.706;2023-07-20T03:06:52;16.80;99.90
24146;DHT22;12308;50.948;4.706;2023-07-20T03:09:18;16.70;99.90
24146;DHT22;12308;50.948;4.706;2023-07-20T03:11:44;16.70;99.90
24146;DHT22;12308;50.948;4.706;2023-07-20T03:14:10;16.80;99.90
24146;DHT22;12308;50.948;4.706;2023-07-20T03:16:36;16.70;99.90
24146;DHT22;12308;50.948;4.706;2023-07-20T03:19:02;16.70;99.90
24146;DHT22;12308;50.948;4.706;2023-07-20T03:21:29;16.70;99.90
24146;DHT22;12308;50.948;4.706;2023-07-20T03:23:55;16.70;99.90
24146;DHT22;12308;50.948;4.706;2023-07-20T03:26:20;16.50;99.90
24146;DHT22;12308;50.948;4.706;2023-07-20T03:28:46;16.60;99.90
24146;DHT22;12308;50.948;4.706;2023-07-20T03:31:12;16.70;99.90
24146;DHT22;12308;50.948;4.706;2023-07-20T03:33:37;16.60;99.90
24146;DHT22;12308;50.948;4.706;2023-07-20T03:36:03;16.70;99.90
24146;DHT22;12308;50.948;4.706;2023-07-20T03:38:29;16.80;99.90
24146;DHT22;12308;50.948;4.706;2023-07-20T03:40:57;16.90;99.90
24146;DHT22;12308;50.948;4.706;2023-07-20T03:43:24;16.80;99.90
24146;DHT22;12308;50.948;4.706;2023-07-20T03:45:50;16.80;99.90
24146;DHT22;12308;50.948;4.706;2023-07-20T03:48:17;16.80;99.90
24146;DHT22;12308;50.948;4.706;2023-07-20T03:50:48;16.80;99.90
24146;DHT22;12308;50.948;4.706;2023-07-20T03:53:15;16.90;99.90
24146;DHT22;12308;50.948;4.706;2023-07-20T03:55:44;17.00;99.90
24146;DHT22;12308;50.948;4.706;2023-07-20T03:58:10;17.10;99.90
24146;DHT22;12308;50.948;4.706;2023-07-20T04:00:35;17.20;99.90
24146;DHT22;12308;50.948;4.706;2023-07-20T04:03:01;17.30;99.90
24146;DHT22;12308;50.948;4.706;2023-07-20T04:05:26;17.20;99.90
24146;DHT22;12308;50.948;4.706;2023-07-20T04:07:52;17.30;99.90
24146;DHT22;12308;50.948;4.706;2023-07-20T04:10:21;17.40;99.90
24146;DHT22;12308;50.948;4.706;2023-07-20T04:12:46;17.40;99.90
24146;DHT22;12308;50.948;4.706;2023-07-20T04:15:13;17.40;99.90
24146;DHT22;12308;50.948;4.706;2023-07-20T04:17:39;17.50;99.90
24146;DHT22;12308;50.948;4.706;2023-07-20T04:20:07;17.60;99.90
24146;DHT22;12308;50.948;4.706;2023-07-20T04:22:34;17.70;99.90
24146;DHT22;12308;50.948;4.706;2023-07-20T04:24:59;17.70;99.90
24146;DHT22;12308;50.948;4.706;2023-07-20T04:27:25;17.80;99.90
24146;DHT22;12308;50.948;4.706;2023-07-20T04:29:51;17.80;99.90
24146;DHT22;12308;50.948;4.706;2023-07-20T04:32:17;17.80;99.90
24146;DHT22;12308;50.948;4.706;2023-07-20T04:34:43;17.80;99.90
24146;DHT22;12308;50.948;4.706;2023-07-20T04:37:08;17.80;99.90
24146;DHT22;12308;50.948;4.706;2023-07-20T04:39:34;17.80;99.90
24146;DHT22;12308;50.948;4.706;2023-07-20T04:42:00;17.80;99.90
24146;DHT22;12308;50.948;4.706;2023-07-20T04:44:25;17.90;99.90
24146;DHT22;12308;50.948;4.706;2023-07-20T04:46:51;17.90;99.90
24146;DHT22;12308;50.948;4.706;2023-07-20T04:49:17;17.90;99.90
24146;DHT22;12308;50.948;4.706;2023-07-20T04:51:42;18.00;99.90
24146;DHT22;12308;50.948;4.706;2023-07-20T04:54:08;18.00;99.90
24146;DHT22;12308;50.948;4.706;2023-07-20T04:56:34;18.00;99.90
24146;DHT22;12308;50.948;4.706;2023-07-20T04:59:00;17.90;99.90
24146;DHT22;12308;50.948;4.706;2023-07-20T05:01:25;17.90;99.90
24146;DHT22;12308;50.948;4.706;2023-07-20T05:03:52;18.00;99.90
24146;DHT22;12308;50.948;4.706;2023-07-20T05:06:18;18.00;99.90
24146;DHT22;12308;50.948;4.706;2023-07-20T05:08:44;18.00;99.90
24146;DHT22;12308;50.948;4.706;2023-07-20T05:11:10;18.10;99.90
24146;DHT22;12308;50.948;4.706;2023-07-20T05:13:37;18.10;99.90
24146;DHT22;12308;50.948;4.706;2023-07-20T05:16:03;18.10;99.90
24146;DHT22;12308;50.948;4.706;2023-07-20T05:18:29;18.10;99.90
24146;DHT22;12308;50.948;4.706;2023-07-20T05:20:54;18.30;99.90
24146;DHT22;12308;50.948;4.706;2023-07-20T05:23:20;18.40;99.90
24146;DHT22;12308;50.948;4.706;2023-07-20T05:25:47;18.40;99.90
24146;DHT22;12308;50.948;4.706;2023-07-20T05:28:13;18.40;99.90
24146;DHT22;12308;50.948;4.706;2023-07-20T05:30:39;18.50;99.90
24146;DHT22;12308;50.948;4.706;2023-07-20T05:33:05;18.50;99.90
24146;DHT22;12308;50.948;4.706;2023-07-20T05:35:31;18.40;99.90
24146;DHT22;12308;50.948;4.706;2023-07-20T05:37:56;18.40;99.90
24146;DHT22;12308;50.948;4.706;2023-07-20T05:40:22;18.60;99.90
24146;DHT22;12308;50.948;4.706;2023-07-20T05:42:48;18.70;99.90
24146;DHT22;12308;50.948;4.706;2023-07-20T05:45:17;18.80;99.90
24146;DHT22;12308;50.948;4.706;2023-07-20T05:47:43;18.70;99.90
24146;DHT22;12308;50.948;4.706;2023-07-20T05:50:10;18.80;99.90
24146;DHT22;12308;50.948;4.706;2023-07-20T05:52:36;18.80;99.90
24146;DHT22;12308;50.948;4.706;2023-07-20T05:55:04;18.80;99.90
24146;DHT22;12308;50.948;4.706;2023-07-20T05:57:30;18.90;99.90
24146;DHT22;12308;50.948;4.706;2023-07-20T05:59:56;18.80;99.90
24146;DHT22;12308;50.948;4.706;2023-07-20T06:02:21;19.00;99.90
24146;DHT22;12308;50.948;4.706;2023-07-20T06:04:47;19.20;99.90
24146;DHT22;12308;50.948;4.706;2023-07-20T06:07:13;19.30;99.90
24146;DHT22;12308;50.948;4.706;2023-07-20T06:09:39;19.20;99.90
24146;DHT22;12308;50.948;4.706;2023-07-20T06:12:05;19.40;99.90
24146;DHT22;12308;50.948;4.706;2023-07-20T06:14:31;19.20;99.90
24146;DHT22;12308;50.948;4.706;2023-07-20T06:16:57;19.40;99.90
24146;DHT22;12308;50.948;4.706;2023-07-20T06:19:23;19.50;99.90
24146;DHT22;12308;50.948;4.706;2023-07-20T06:21:48;19.70;99.90
24146;DHT22;12308;50.948;4.706;2023-07-20T06:24:16;19.90;99.90
24146;DHT22;12308;50.948;4.706;2023-07-20T06:26:41;19.90;99.90
24146;DHT22;12308;50.948;4.706;2023-07-20T06:29:08;19.90;99.90
24146;DHT22;12308;50.948;4.706;2023-07-20T06:31:37;19.90;99.90
24146;DHT22;12308;50.948;4.706;2023-07-20T06:34:03;19.80;99.90
24146;DHT22;12308;50.948;4.706;2023-07-20T06:36:28;19.70;99.90
24146;DHT22;12308;50.948;4.706;2023-07-20T06:38:57;19.60;99.90
24146;DHT22;12308;50.948;4.706;2023-07-20T06:41:23;19.70;99.90
24146;DHT22;12308;50.948;4.706;2023-07-20T06:43:49;19.60;99.90
24146;DHT22;12308;50.948;4.706;2023-07-20T06:46:15;20.00;99.90
24146;DHT22;12308;50.948;4.706;2023-07-20T06:48:40;19.90;99.90
24146;DHT22;12308;50.948;4.706;2023-07-20T06:51:06;20.30;99.90
24146;DHT22;12308;50.948;4.706;2023-07-20T06:53:33;20.50;99.90
24146;DHT22;12308;50.948;4.706;2023-07-20T06:55:58;20.80;99.90
24146;DHT22;12308;50.948;4.706;2023-07-20T06:58:24;20.70;99.90
24146;DHT22;12308;50.948;4.706;2023-07-20T07:00:50;20.80;99.90
24146;DHT22;12308;50.948;4.706;2023-07-20T07:03:16;21.00;99.90
24146;DHT22;12308;50.948;4.706;2023-07-20T07:05:42;20.60;99.90
24146;DHT22;12308;50.948;4.706;2023-07-20T07:08:08;20.60;99.90
24146;DHT22;12308;50.948;4.706;2023-07-20T07:10:35;20.60;99.90
24146;DHT22;12308;50.948;4.706;2023-07-20T07:13:02;20.90;99.90
24146;DHT22;12308;50.948;4.706;2023-07-20T07:15:27;20.90;99.90
24146;DHT22;12308;50.948;4.706;2023-07-20T07:17:53;20.80;99.90
24146;DHT22;12308;50.948;4.706;2023-07-20T07:20:19;20.70;99.90
24146;DHT22;12308;50.948;4.706;2023-07-20T07:22:44;21.00;99.90
24146;DHT22;12308;50.948;4.706;2023-07-20T07:25:10;21.10;99.90
24146;DHT22;12308;50.948;4.706;2023-07-20T07:27:36;21.30;99.90
24146;DHT22;12308;50.948;4.706;2023-07-20T07:30:05;21.30;99.90
24146;DHT22;12308;50.948;4.706;2023-07-20T07:32:31;21.70;99.90
24146;DHT22;12308;50.948;4.706;2023-07-20T07:34:57;22.00;99.90
24146;DHT22;12308;50.948;4.706;2023-07-20T07:37:24;21.70;99.90
24146;DHT22;12308;50.948;4.706;2023-07-20T07:39:50;21.90;99.90
24146;DHT22;12308;50.948;4.706;2023-07-20T07:42:15;22.10;99.90
24146;DHT22;12308;50.948;4.706;2023-07-20T07:44:41;22.10;99.90
24146;DHT22;12308;50.948;4.706;2023-07-20T07:47:07;22.30;99.90
24146;DHT22;12308;50.948;4.706;2023-07-20T07:49:32;22.50;99.90
24146;DHT22;12308;50.948;4.706;2023-07-20T07:51:58;22.70;99.90
24146;DHT22;12308;50.948;4.706;2023-07-20T07:54:24;22.90;99.90
24146;DHT22;12308;50.948;4.706;2023-07-20T07:56:50;23.00;99.90
24146;DHT22;12308;50.948;4.706;2023-07-20T07:59:17;23.00;99.90
24146;DHT22;12308;50.948;4.706;2023-07-20T08:01:42;23.00;99.90
24146;DHT22;12308;50.948;4.706;2023-07-20T08:04:08;23.00;99.90
24146;DHT22;12308;50.948;4.706;2023-07-20T08:06:34;22.90;99.90
24146;DHT22;12308;50.948;4.706;2023-07-20T08:08:59;22.90;99.90
24146;DHT22;12308;50.948;4.706;2023-07-20T08:11:25;22.80;99.90
24146;DHT22;12308;50.948;4.706;2023-07-20T08:13:51;22.70;99.90
24146;DHT22;12308;50.948;4.706;2023-07-20T08:16:17;23.10;99.90
24146;DHT22;12308;50.948;4.706;2023-07-20T08:18:43;23.40;99.90
24146;DHT22;12308;50.948;4.706;2023-07-20T08:21:09;23.40;99.90
24146;DHT22;12308;50.948;4.706;2023-07-20T08:23:35;23.40;99.90
24146;DHT22;12308;50.948;4.706;2023-07-20T08:26:01;23.30;99.90
24146;DHT22;12308;50.948;4.706;2023-07-20T08:28:26;23.40;99.90
24146;DHT22;12308;50.948;4.706;2023-07-20T08:30:52;23.50;99.90
24146;DHT22;12308;50.948;4.706;2023-07-20T08:33:18;23.40;99.90
24146;DHT22;12308;50.948;4.706;2023-07-20T08:35:48;23.50;99.90
24146;DHT22;12308;50.948;4.706;2023-07-20T08:38:14;23.50;99.90
24146;DHT22;12308;50.948;4.706;2023-07-20T08:40:45;23.50;99.90
24146;DHT22;12308;50.948;4.706;2023-07-20T08:43:11;23.50;99.90
24146;DHT22;12308;50.948;4.706;2023-07-20T08:45:39;23.90;99.90
24146;DHT22;12308;50.948;4.706;2023-07-20T08:48:08;23.90;99.90
24146;DHT22;12308;50.948;4.706;2023-07-20T08:50:35;23.90;99.90
24146;DHT22;12308;50.948;4.706;2023-07-20T08:53:02;23.90;99.90
24146;DHT22;12308;50.948;4.706;2023-07-20T08:55:29;24.10;99.90
24146;DHT22;12308;50.948;4.706;2023-07-20T08:57:58;24.20;99.90
24146;DHT22;12308;50.948;4.706;2023-07-20T09:00:25;24.00;99.90
24146;DHT22;12308;50.948;4.706;2023-07-20T09:02:53;24.10;99.90
24146;DHT22;12308;50.948;4.706;2023-07-20T09:05:20;24.10;99.90
24146;DHT22;12308;50.948;4.706;2023-07-20T09:07:46;23.90;99.90
24146;DHT22;12308;50.948;4.706;2023-07-20T09:10:12;24.10;99.90
24146;DHT22;12308;50.948;4.706;2023-07-20T09:12:40;23.70;99.90
24146;DHT22;12308;50.948;4.706;2023-07-20T09:15:07;23.60;99.90
24146;DHT22;12308;50.948;4.706;2023-07-20T09:17:33;23.80;99.90
24146;DHT22;12308;50.948;4.706;2023-07-20T09:20:04;23.80;99.90
24146;DHT22;12308;50.948;4.706;2023-07-20T09:22:36;24.10;99.90
24146;DHT22;12308;50.948;4.706;2023-07-20T09:25:11;24.40;99.90
24146;DHT22;12308;50.948;4.706;2023-07-20T09:27:46;23.90;99.90
24146;DHT22;12308;50.948;4.706;2023-07-20T09:30:14;23.60;99.90
24146;DHT22;12308;50.948;4.706;2023-07-20T09:32:42;23.70;99.90
24146;DHT22;12308;50.948;4.706;2023-07-20T09:35:16;23.80;99.90
24146;DHT22;12308;50.948;4.706;2023-07-20T09:37:55;24.00;99.90
24146;DHT22;12308;50.948;4.706;2023-07-20T09:40:24;24.10;99.90
24146;DHT22;12308;50.948;4.706;2023-07-20T09:42:52;24.40;99.90
24146;DHT22;12308;50.948;4.706;2023-07-20T09:45:18;24.50;99.90
24146;DHT22;12308;50.948;4.706;2023-07-20T09:47:44;24.40;99.90
24146;DHT22;12308;50.948;4.706;2023-07-20T09:50:10;24.50;99.90
24146;DHT22;12308;50.948;4.706;2023-07-20T09:52:42;24.70;99.90
24146;DHT22;12308;50.948;4.706;2023-07-20T09:55:10;24.70;99.90
24146;DHT22;12308;50.948;4.706;2023-07-20T09:57:37;24.70;99.90
24146;DHT22;12308;50.948;4.706;2023-07-20T10:00:04;24.80;99.90
24146;DHT22;12308;50.948;4.706;2023-07-20T10:02:43;24.50;99.90
24146;DHT22;12308;50.948;4.706;2023-07-20T10:05:12;24.40;99.90
24146;DHT22;12308;50.948;4.706;2023-07-20T10:07:52;24.50;99.90
24146;DHT22;12308;50.948;4.706;2023-07-20T10:10:19;24.90;99.90
24146;DHT22;12308;50.948;4.706;2023-07-20T10:12:47;24.90;99.90
24146;DHT22;12308;50.948;4.706;2023-07-20T10:15:36;25.20;99.90
24146;DHT22;12308;50.948;4.706;2023-07-20T10:18:14;25.20;99.90
24146;DHT22;12308;50.948;4.706;2023-07-20T10:20:43;25.20;99.90
24146;DHT22;12308;50.948;4.706;2023-07-20T10:23:10;25.50;99.90
24146;DHT22;12308;50.948;4.706;2023-07-20T10:25:37;25.50;99.90
24146;DHT22;12308;50.948;4.706;2023-07-20T10:28:07;25.00;99.90
24146;DHT22;12308;50.948;4.706;2023-07-20T10:30:36;25.10;99.90
24146;DHT22;12308;50.948;4.706;2023-07-20T10:33:03;25.20;99.90
24146;DHT22;12308;50.948;4.706;2023-07-20T10:35:29;25.40;99.90
24146;DHT22;12308;50.948;4.706;2023-07-20T10:38:00;25.70;99.90
24146;DHT22;12308;50.948;4.706;2023-07-20T10:40:31;25.70;99.90
24146;DHT22;12308;50.948;4.706;2023-07-20T10:43:02;25.70;99.90
24146;DHT22;12308;50.948;4.706;2023-07-20T10:45:49;25.50;99.90
24146;DHT22;12308;50.948;4.706;2023-07-20T10:50:43;25.10;99.90
24146;DHT22;12308;50.948;4.706;2023-07-20T10:53:15;24.90;99.90
24146;DHT22;12308;50.948;4.706;2023-07-20T10:55:41;24.80;99.90
24146;DHT22;12308;50.948;4.706;2023-07-20T10:58:15;24.90;99.90
24146;DHT22;12308;50.948;4.706;2023-07-20T11:01:00;24.70;99.90
24146;DHT22;12308;50.948;4.706;2023-07-20T11:03:30;24.80;99.90
24146;DHT22;12308;50.948;4.706;2023-07-20T11:05:57;24.60;99.90
24146;DHT22;12308;50.948;4.706;2023-07-20T11:08:42;24.60;99.90
24146;DHT22;12308;50.948;4.706;2023-07-20T11:11:29;24.90;99.90
24146;DHT22;12308;50.948;4.706;2023-07-20T11:13:59;24.90;99.90
24146;DHT22;12308;50.948;4.706;2023-07-20T11:16:52;24.80;99.90
24146;DHT22;12308;50.948;4.706;2023-07-20T11:19:21;24.90;99.90
24146;DHT22;12308;50.948;4.706;2023-07-20T11:21:53;25.00;99.90
24146;DHT22;12308;50.948;4.706;2023-07-20T11:24:19;25.30;99.90
24146;DHT22;12308;50.948;4.706;2023-07-20T11:26:49;25.70;99.90
24146;DHT22;12308;50.948;4.706;2023-07-20T11:29:22;26.00;99.90
24146;DHT22;12308;50.948;4.706;2023-07-20T11:31:49;25.90;99.90
24146;DHT22;12308;50.948;4.706;2023-07-20T11:34:20;25.90;99.90
24146;DHT22;12308;50.948;4.706;2023-07-20T11:36:48;25.90;99.90
24146;DHT22;12308;50.948;4.706;2023-07-20T11:39:21;25.50;99.90
24146;DHT22;12308;50.948;4.706;2023-07-20T11:44:21;25.50;99.90
24146;DHT22;12308;50.948;4.706;2023-07-20T11:47:03;25.60;99.90
24146;DHT22;12308;50.948;4.706;2023-07-20T11:49:30;25.60;99.90
24146;DHT22;12308;50.948;4.706;2023-07-20T11:51:56;25.60;99.90
24146;DHT22;12308;50.948;4.706;2023-07-20T11:54:23;25.30;99.90
24146;DHT22;12308;50.948;4.706;2023-07-20T11:56:54;25.40;99.90
24146;DHT22;12308;50.948;4.706;2023-07-20T11:59:21;25.60;99.90
24146;DHT22;12308;50.948;4.706;2023-07-20T12:01:47;25.50;99.90
24146;DHT22;12308;50.948;4.706;2023-07-20T12:04:13;25.70;99.90
24146;DHT22;12308;50.948;4.706;2023-07-20T12:06:39;25.90;99.90
24146;DHT22;12308;50.948;4.706;2023-07-20T12:09:05;26.20;99.90
24146;DHT22;12308;50.948;4.706;2023-07-20T12:11:37;26.70;99.90
24146;DHT22;12308;50.948;4.706;2023-07-20T12:14:06;26.30;99.90
24146;DHT22;12308;50.948;4.706;2023-07-20T12:16:33;26.10;99.90
24146;DHT22;12308;50.948;4.706;2023-07-20T12:19:05;26.10;99.90
24146;DHT22;12308;50.948;4.706;2023-07-20T12:21:32;26.10;99.90
24146;DHT22;12308;50.948;4.706;2023-07-20T12:23:59;26.10;99.90
24146;DHT22;12308;50.948;4.706;2023-07-20T12:26:26;26.00;99.90
24146;DHT22;12308;50.948;4.706;2023-07-20T12:28:52;26.00;99.90
24146;DHT22;12308;50.948;4.706;2023-07-20T12:31:18;25.80;99.90
24146;DHT22;12308;50.948;4.706;2023-07-20T12:33:44;26.00;99.90
24146;DHT22;12308;50.948;4.706;2023-07-20T12:36:10;26.10;99.90
24146;DHT22;12308;50.948;4.706;2023-07-20T12:38:36;26.00;99.90
24146;DHT22;12308;50.948;4.706;2023-07-20T12:41:03;25.90;99.90
24146;DHT22;12308;50.948;4.706;2023-07-20T12:43:29;25.90;99.90
24146;DHT22;12308;50.948;4.706;2023-07-20T12:45:55;25.70;99.90
24146;DHT22;12308;50.948;4.706;2023-07-20T12:48:21;25.90;99.90
24146;DHT22;12308;50.948;4.706;2023-07-20T12:50:47;25.90;99.90
24146;DHT22;12308;50.948;4.706;2023-07-20T12:53:13;26.10;99.90
24146;DHT22;12308;50.948;4.706;2023-07-20T12:55:39;26.10;99.90
24146;DHT22;12308;50.948;4.706;2023-07-20T12:58:06;26.10;99.90
24146;DHT22;12308;50.948;4.706;2023-07-20T13:00:31;26.10;99.90
24146;DHT22;12308;50.948;4.706;2023-07-20T13:02:57;26.10;99.90
24146;DHT22;12308;50.948;4.706;2023-07-20T13:05:23;25.80;99.90
24146;DHT22;12308;50.948;4.706;2023-07-20T13:07:49;25.80;99.90
24146;DHT22;12308;50.948;4.706;2023-07-20T13:10:15;25.90;99.90
24146;DHT22;12308;50.948;4.706;2023-07-20T13:12:41;26.10;99.90
24146;DHT22;12308;50.948;4.706;2023-07-20T13:15:08;26.30;99.90
24146;DHT22;12308;50.948;4.706;2023-07-20T13:17:35;26.80;99.90
24146;DHT22;12308;50.948;4.706;2023-07-20T13:20:02;27.00;99.90
24146;DHT22;12308;50.948;4.706;2023-07-20T13:22:32;27.20;99.90
24146;DHT22;12308;50.948;4.706;2023-07-20T13:24:58;26.90;99.90
24146;DHT22;12308;50.948;4.706;2023-07-20T13:27:23;26.40;99.90
24146;DHT22;12308;50.948;4.706;2023-07-20T13:29:51;26.40;99.90
24146;DHT22;12308;50.948;4.706;2023-07-20T13:32:17;26.30;99.90
24146;DHT22;12308;50.948;4.706;2023-07-20T13:34:46;26.30;99.90
24146;DHT22;12308;50.948;4.706;2023-07-20T13:37:12;26.20;99.90
24146;DHT22;12308;50.948;4.706;2023-07-20T13:39:38;26.30;99.90
24146;DHT22;12308;50.948;4.706;2023-07-20T13:42:05;26.50;99.90
24146;DHT22;12308;50.948;4.706;2023-07-20T13:44:32;26.30;99.90
24146;DHT22;12308;50.948;4.706;2023-07-20T13:46:57;25.80;99.90
24146;DHT22;12308;50.948;4.706;2023-07-20T13:49:23;25.50;99.90
24146;DHT22;12308;50.948;4.706;2023-07-20T13:51:49;25.60;99.90
24146;DHT22;12308;50.948;4.706;2023-07-20T13:54:15;25.50;99.90
24146;DHT22;12308;50.948;4.706;2023-07-20T13:56:40;25.50;99.90
24146;DHT22;12308;50.948;4.706;2023-07-20T13:59:06;25.20;99.90
24146;DHT22;12308;50.948;4.706;2023-07-20T14:01:32;25.00;99.90
24146;DHT22;12308;50.948;4.706;2023-07-20T14:04:02;24.80;99.90
24146;DHT22;12308;50.948;4.706;2023-07-20T14:06:30;24.40;99.90
24146;DHT22;12308;50.948;4.706;2023-07-20T14:08:56;24.40;99.90
24146;DHT22;12308;50.948;4.706;2023-07-20T14:11:22;24.20;99.90
24146;DHT22;12308;50.948;4.706;2023-07-20T14:13:49;24.00;99.90
24146;DHT22;12308;50.948;4.706;2023-07-20T14:16:15;23.70;99.90
24146;DHT22;12308;50.948;4.706;2023-07-20T14:18:41;23.50;99.90
24146;DHT22;12308;50.948;4.706;2023-07-20T14:21:07;23.50;99.90
24146;DHT22;12308;50.948;4.706;2023-07-20T14:23:33;23.40;99.90
24146;DHT22;12308;50.948;4.706;2023-07-20T14:25:59;23.40;99.90
24146;DHT22;12308;50.948;4.706;2023-07-20T14:28:25;23.50;99.90
24146;DHT22;12308;50.948;4.706;2023-07-20T14:30:51;23.50;99.90
24146;DHT22;12308;50.948;4.706;2023-07-20T14:33:16;23.40;99.90
24146;DHT22;12308;50.948;4.706;2023-07-20T14:35:42;23.50;99.90
24146;DHT22;12308;50.948;4.706;2023-07-20T14:38:08;23.60;99.90
24146;DHT22;12308;50.948;4.706;2023-07-20T14:40:33;23.70;99.90
24146;DHT22;12308;50.948;4.706;2023-07-20T14:42:59;23.70;99.90
24146;DHT22;12308;50.948;4.706;2023-07-20T14:45:27;23.70;99.90
24146;DHT22;12308;50.948;4.706;2023-07-20T14:47:53;23.70;99.90
24146;DHT22;12308;50.948;4.706;2023-07-20T14:50:20;23.80;99.90
24146;DHT22;12308;50.948;4.706;2023-07-20T14:52:46;23.80;99.90
24146;DHT22;12308;50.948;4.706;2023-07-20T14:55:12;23.80;99.90
24146;DHT22;12308;50.948;4.706;2023-07-20T14:57:38;23.90;99.90
24146;DHT22;12308;50.948;4.706;2023-07-20T15:00:04;24.00;99.90
24146;DHT22;12308;50.948;4.706;2023-07-20T15:02:39;24.00;99.90
24146;DHT22;12308;50.948;4.706;2023-07-20T15:05:08;23.80;99.90
24146;DHT22;12308;50.948;4.706;2023-07-20T15:07:34;23.60;99.90
24146;DHT22;12308;50.948;4.706;2023-07-20T15:10:01;23.50;99.90
24146;DHT22;12308;50.948;4.706;2023-07-20T15:12:27;23.50;99.90
24146;DHT22;12308;50.948;4.706;2023-07-20T15:15:06;23.70;99.90
24146;DHT22;12308;50.948;4.706;2023-07-20T15:17:32;23.90;99.90
24146;DHT22;12308;50.948;4.706;2023-07-20T15:19:58;24.10;99.90
24146;DHT22;12308;50.948;4.706;2023-07-20T15:22:25;24.30;99.90
24146;DHT22;12308;50.948;4.706;2023-07-20T15:24:51;24.30;99.90
24146;DHT22;12308;50.948;4.706;2023-07-20T15:27:16;24.40;99.90
24146;DHT22;12308;50.948;4.706;2023-07-20T15:29:42;24.60;99.90
24146;DHT22;12308;50.948;4.706;2023-07-20T15:32:09;24.70;99.90
24146;DHT22;12308;50.948;4.706;2023-07-20T15:34:35;24.40;99.90
24146;DHT22;12308;50.948;4.706;2023-07-20T15:37:01;24.20;99.90